sensor_id;sensor_type;location;lat;lon;timestamp;P1;durP1;ratioP1;P2;durP2;ratioP2
37507;SDS011;23360;46.936;15.514;2023-12-28T00:00:05;54.72;;;21.50;;
37507;SDS011;23360;46.936;15.514;2023-12-28T00:02:32;57.22;;;19.45;;
37507;SDS011;23360;46.936;15.514;2023-12-28T00:04:58;63.75;;;21.70;;
37507;SDS011;23360;46.936;15.514;2023-12-28T00:07:25;53.90;;;19.55;;
37507;SDS011;23360;46.936;15.514;2023-12-28T00:09:52;56.40;;;20.90;;
37507;SDS011;23360;46.936;15.514;2023-12-28T00:12:18;61.38;;;20.00;;
37507;SDS011;23360;46.936;15.514;2023-12-28T00:14:45;52.38;;;19.10;;
37507;SDS011;23360;46.936;15.514;2023-12-28T00:17:11;46.10;;;20.05;;
37507;SDS011;23360;46.936;15.514;2023-12-28T00:19:38;50.55;;;19.48;;
37507;SDS011;23360;46.936;15.514;2023-12-28T00:22:05;57.63;;;20.08;;
37507;SDS011;23360;46.936;15.514;2023-12-28T00:24:31;66.03;;;17.23;;
37507;SDS011;23360;46.936;15.514;2023-12-28T00:26:58;57.28;;;18.92;;
37507;SDS011;23360;46.936;15.514;2023-12-28T00:29:25;57.58;;;18.27;;
37507;SDS011;23360;46.936;15.514;2023-12-28T00:31:51;62.10;;;21.17;;
37507;SDS011;23360;46.936;15.514;2023-12-28T00:34:18;62.60;;;19.65;;
37507;SDS011;23360;46.936;15.514;2023-12-28T00:36:44;55.38;;;19.38;;
37507;SDS011;23360;46.936;15.514;2023-12-28T00:39:11;50.42;;;19.98;;
37507;SDS011;23360;46.936;15.514;2023-12-28T00:41:38;61.90;;;20.83;;
37507;SDS011;23360;46.936;15.514;2023-12-28T00:44:04;67.90;;;22.05;;
37507;SDS011;23360;46.936;15.514;2023-12-28T00:46:33;58.63;;;20.30;;
37507;SDS011;23360;46.936;15.514;2023-12-28T00:49:00;62.03;;;20.00;;
37507;SDS011;23360;46.936;15.514;2023-12-28T00:51:26;54.42;;;18.77;;
37507;SDS011;23360;46.936;15.514;2023-12-28T00:53:53;47.05;;;17.35;;
37507;SDS011;23360;46.936;15.514;2023-12-28T00:56:20;56.05;;;19.08;;
37507;SDS011;23360;46.936;15.514;2023-12-28T00:58:47;61.80;;;19.80;;
37507;SDS011;23360;46.936;15.514;2023-12-28T01:01:14;52.63;;;15.95;;
37507;SDS011;23360;46.936;15.514;2023-12-28T01:03:41;50.40;;;18.50;;
37507;SDS011;23360;46.936;15.514;2023-12-28T01:06:07;52.22;;;19.00;;
37507;SDS011;23360;46.936;15.514;2023-12-28T01:08:34;58.92;;;18.80;;
37507;SDS011;23360;46.936;15.514;2023-12-28T01:11:01;45.22;;;16.50;;
37507;SDS011;23360;46.936;15.514;2023-12-28T01:13:28;49.00;;;18.33;;
37507;SDS011;23360;46.936;15.514;2023-12-28T01:15:54;57.97;;;18.52;;
37507;SDS011;23360;46.936;15.514;2023-12-28T01:18:21;48.22;;;17.25;;
37507;SDS011;23360;46.936;15.514;2023-12-28T01:20:48;50.40;;;18.00;;
37507;SDS011;23360;46.936;15.514;2023-12-28T01:23:15;34.60;;;15.30;;
37507;SDS011;23360;46.936;15.514;2023-12-28T01:25:41;33.83;;;14.35;;
37507;SDS011;23360;46.936;15.514;2023-12-28T01:28:08;38.78;;;16.27;;
37507;SDS011;23360;46.936;15.514;2023-12-28T01:30:34;72.13;;;16.52;;
37507;SDS011;23360;46.936;15.514;2023-12-28T01:33:01;55.30;;;16.45;;
37507;SDS011;23360;46.936;15.514;2023-12-28T01:35:28;45.03;;;17.83;;
37507;SDS011;23360;46.936;15.514;2023-12-28T01:37:54;46.33;;;17.92;;
37507;SDS011;23360;46.936;15.514;2023-12-28T01:40:21;52.08;;;18.98;;
37507;SDS011;23360;46.936;15.514;2023-12-28T01:42:48;46.38;;;18.75;;
37507;SDS011;23360;46.936;15.514;2023-12-28T01:45:15;55.60;;;19.35;;
37507;SDS011;23360;46.936;15.514;2023-12-28T01:47:41;57.30;;;18.85;;
37507;SDS011;23360;46.936;15.514;2023-12-28T01:50:08;59.60;;;19.88;;
37507;SDS011;23360;46.936;15.514;2023-12-28T01:52:35;54.97;;;19.17;;
37507;SDS011;23360;46.936;15.514;2023-12-28T01:55:02;54.38;;;18.67;;
37507;SDS011;23360;46.936;15.514;2023-12-28T01:57:30;55.38;;;18.67;;
37507;SDS011;23360;46.936;15.514;2023-12-28T01:59:56;60.60;;;18.73;;
37507;SDS011;23360;46.936;15.514;2023-12-28T02:02:24;53.95;;;19.00;;
37507;SDS011;23360;46.936;15.514;2023-12-28T02:04:51;57.22;;;20.83;;
37507;SDS011;23360;46.936;15.514;2023-12-28T02:07:18;45.60;;;17.52;;
37507;SDS011;23360;46.936;15.514;2023-12-28T02:09:44;47.08;;;17.65;;
37507;SDS011;23360;46.936;15.514;2023-12-28T02:12:11;33.83;;;15.43;;
37507;SDS011;23360;46.936;15.514;2023-12-28T02:14:38;47.97;;;16.60;;
37507;SDS011;23360;46.936;15.514;2023-12-28T02:17:12;33.92;;;15.48;;
37507;SDS011;23360;46.936;15.514;2023-12-28T02:19:43;41.25;;;15.98;;
37507;SDS011;23360;46.936;15.514;2023-12-28T02:22:11;38.97;;;15.88;;
37507;SDS011;23360;46.936;15.514;2023-12-28T02:24:58;55.28;;;17.65;;
37507;SDS011;23360;46.936;15.514;2023-12-28T02:27:25;67.25;;;19.52;;
37507;SDS011;23360;46.936;15.514;2023-12-28T02:29:52;92.28;;;22.33;;
37507;SDS011;23360;46.936;15.514;2023-12-28T02:32:21;55.97;;;19.23;;
37507;SDS011;23360;46.936;15.514;2023-12-28T02:34:49;66.57;;;20.58;;
37507;SDS011;23360;46.936;15.514;2023-12-28T02:37:18;339.80;;;31.45;;
37507;SDS011;23360;46.936;15.514;2023-12-28T02:39:45;355.70;;;29.83;;
37507;SDS011;23360;46.936;15.514;2023-12-28T02:42:13;363.02;;;31.67;;
37507;SDS011;23360;46.936;15.514;2023-12-28T02:44:40;165.63;;;23.45;;
37507;SDS011;23360;46.936;15.514;2023-12-28T02:47:06;107.45;;;20.77;;
37507;SDS011;23360;46.936;15.514;2023-12-28T02:49:33;622.85;;;41.72;;
37507;SDS011;23360;46.936;15.514;2023-12-28T02:51:59;139.10;;;20.73;;
37507;SDS011;23360;46.936;15.514;2023-12-28T02:54:26;278.60;;;25.02;;
37507;SDS011;23360;46.936;15.514;2023-12-28T02:56:53;55.08;;;19.30;;
37507;SDS011;23360;46.936;15.514;2023-12-28T02:59:19;53.75;;;18.77;;
37507;SDS011;23360;46.936;15.514;2023-12-28T03:01:46;492.20;;;32.10;;
37507;SDS011;23360;46.936;15.514;2023-12-28T03:04:12;479.60;;;36.95;;
37507;SDS011;23360;46.936;15.514;2023-12-28T03:06:39;238.80;;;26.10;;
37507;SDS011;23360;46.936;15.514;2023-12-28T03:09:07;296.00;;;24.90;;
37507;SDS011;23360;46.936;15.514;2023-12-28T03:11:34;184.77;;;23.17;;
37507;SDS011;23360;46.936;15.514;2023-12-28T03:14:00;251.80;;;22.98;;
37507;SDS011;23360;46.936;15.514;2023-12-28T03:16:27;228.48;;;21.52;;
37507;SDS011;23360;46.936;15.514;2023-12-28T03:18:54;379.25;;;28.35;;
37507;SDS011;23360;46.936;15.514;2023-12-28T03:21:21;410.98;;;24.77;;
37507;SDS011;23360;46.936;15.514;2023-12-28T03:23:47;424.70;;;26.40;;
37507;SDS011;23360;46.936;15.514;2023-12-28T03:26:14;269.15;;;19.63;;
37507;SDS011;23360;46.936;15.514;2023-12-28T03:28:40;133.45;;;13.60;;
37507;SDS011;23360;46.936;15.514;2023-12-28T03:31:07;166.43;;;13.60;;
37507;SDS011;23360;46.936;15.514;2023-12-28T03:33:34;88.55;;;12.93;;
37507;SDS011;23360;46.936;15.514;2023-12-28T03:36:00;191.48;;;17.30;;
37507;SDS011;23360;46.936;15.514;2023-12-28T03:38:27;198.45;;;16.90;;
37507;SDS011;23360;46.936;15.514;2023-12-28T03:40:54;23.20;;;10.20;;
37507;SDS011;23360;46.936;15.514;2023-12-28T03:43:21;29.08;;;10.00;;
37507;SDS011;23360;46.936;15.514;2023-12-28T03:45:48;124.60;;;14.90;;
37507;SDS011;23360;46.936;15.514;2023-12-28T03:48:14;42.03;;;13.07;;
37507;SDS011;23360;46.936;15.514;2023-12-28T03:50:41;83.50;;;13.13;;
37507;SDS011;23360;46.936;15.514;2023-12-28T03:53:08;38.97;;;11.25;;
37507;SDS011;23360;46.936;15.514;2023-12-28T03:55:34;20.67;;;9.77;;
37507;SDS011;23360;46.936;15.514;2023-12-28T03:58:03;23.45;;;10.95;;
37507;SDS011;23360;46.936;15.514;2023-12-28T04:00:30;25.48;;;12.35;;
37507;SDS011;23360;46.936;15.514;2023-12-28T04:02:56;29.85;;;13.15;;
37507;SDS011;23360;46.936;15.514;2023-12-28T04:05:25;33.95;;;13.88;;
37507;SDS011;23360;46.936;15.514;2023-12-28T04:07:52;53.63;;;16.33;;
37507;SDS011;23360;46.936;15.514;2023-12-28T04:10:28;33.25;;;15.38;;
37507;SDS011;23360;46.936;15.514;2023-12-28T04:12:55;39.63;;;15.18;;
37507;SDS011;23360;46.936;15.514;2023-12-28T04:15:26;44.83;;;14.70;;
37507;SDS011;23360;46.936;15.514;2023-12-28T04:17:53;35.17;;;12.88;;
37507;SDS011;23360;46.936;15.514;2023-12-28T04:20:20;43.97;;;15.15;;
37507;SDS011;23360;46.936;15.514;2023-12-28T04:22:46;31.15;;;12.88;;
37507;SDS011;23360;46.936;15.514;2023-12-28T04:25:13;33.03;;;12.52;;
37507;SDS011;23360;46.936;15.514;2023-12-28T04:27:42;37.47;;;13.82;;
37507;SDS011;23360;46.936;15.514;2023-12-28T04:30:11;30.88;;;13.48;;
37507;SDS011;23360;46.936;15.514;2023-12-28T04:32:38;35.67;;;12.52;;
37507;SDS011;23360;46.936;15.514;2023-12-28T04:35:05;31.00;;;12.65;;
37507;SDS011;23360;46.936;15.514;2023-12-28T04:37:32;28.02;;;11.82;;
37507;SDS011;23360;46.936;15.514;2023-12-28T04:39:59;110.45;;;15.50;;
37507;SDS011;23360;46.936;15.514;2023-12-28T04:42:25;28.80;;;12.57;;
37507;SDS011;23360;46.936;15.514;2023-12-28T04:44:52;26.08;;;11.82;;
37507;SDS011;23360;46.936;15.514;2023-12-28T04:47:18;28.40;;;11.25;;
37507;SDS011;23360;46.936;15.514;2023-12-28T04:49:45;28.30;;;11.95;;
37507;SDS011;23360;46.936;15.514;2023-12-28T04:52:12;30.10;;;13.85;;
37507;SDS011;23360;46.936;15.514;2023-12-28T04:54:41;31.85;;;12.45;;
37507;SDS011;23360;46.936;15.514;2023-12-28T04:57:08;31.27;;;14.50;;
37507;SDS011;23360;46.936;15.514;2023-12-28T04:59:41;35.78;;;13.65;;
37507;SDS011;23360;46.936;15.514;2023-12-28T05:02:07;26.88;;;12.15;;
37507;SDS011;23360;46.936;15.514;2023-12-28T05:04:36;48.97;;;14.85;;
37507;SDS011;23360;46.936;15.514;2023-12-28T05:07:05;39.65;;;14.65;;
37507;SDS011;23360;46.936;15.514;2023-12-28T05:09:31;34.33;;;13.07;;
37507;SDS011;23360;46.936;15.514;2023-12-28T05:11:58;30.60;;;13.30;;
37507;SDS011;23360;46.936;15.514;2023-12-28T05:14:24;38.70;;;14.02;;
37507;SDS011;23360;46.936;15.514;2023-12-28T05:16:51;37.47;;;14.68;;
37507;SDS011;23360;46.936;15.514;2023-12-28T05:19:18;35.30;;;14.30;;
37507;SDS011;23360;46.936;15.514;2023-12-28T05:21:44;35.00;;;13.05;;
37507;SDS011;23360;46.936;15.514;2023-12-28T05:24:12;37.55;;;14.13;;
37507;SDS011;23360;46.936;15.514;2023-12-28T05:26:39;40.75;;;13.23;;
37507;SDS011;23360;46.936;15.514;2023-12-28T05:29:06;30.63;;;13.15;;
37507;SDS011;23360;46.936;15.514;2023-12-28T05:31:32;27.70;;;10.32;;
37507;SDS011;23360;46.936;15.514;2023-12-28T05:33:59;33.22;;;12.20;;
37507;SDS011;23360;46.936;15.514;2023-12-28T05:36:26;22.13;;;9.93;;
37507;SDS011;23360;46.936;15.514;2023-12-28T05:38:52;27.35;;;10.07;;
37507;SDS011;23360;46.936;15.514;2023-12-28T05:41:19;26.33;;;11.20;;
37507;SDS011;23360;46.936;15.514;2023-12-28T05:43:46;29.10;;;11.30;;
37507;SDS011;23360;46.936;15.514;2023-12-28T05:46:12;31.33;;;12.88;;
37507;SDS011;23360;46.936;15.514;2023-12-28T05:48:39;30.50;;;12.00;;
37507;SDS011;23360;46.936;15.514;2023-12-28T05:51:05;27.08;;;10.38;;
37507;SDS011;23360;46.936;15.514;2023-12-28T05:53:32;27.88;;;11.57;;
37507;SDS011;23360;46.936;15.514;2023-12-28T05:55:58;31.65;;;10.93;;
37507;SDS011;23360;46.936;15.514;2023-12-28T05:58:29;27.15;;;12.05;;
37507;SDS011;23360;46.936;15.514;2023-12-28T06:00:56;28.50;;;11.95;;
37507;SDS011;23360;46.936;15.514;2023-12-28T06:03:23;29.63;;;12.52;;
37507;SDS011;23360;46.936;15.514;2023-12-28T06:05:54;32.92;;;12.82;;
37507;SDS011;23360;46.936;15.514;2023-12-28T06:08:22;25.33;;;11.50;;
37507;SDS011;23360;46.936;15.514;2023-12-28T06:10:52;27.70;;;11.20;;
37507;SDS011;23360;46.936;15.514;2023-12-28T06:13:19;30.58;;;11.98;;
37507;SDS011;23360;46.936;15.514;2023-12-28T06:15:46;32.65;;;12.27;;
37507;SDS011;23360;46.936;15.514;2023-12-28T06:18:13;32.28;;;11.63;;
37507;SDS011;23360;46.936;15.514;2023-12-28T06:20:40;31.10;;;12.70;;
37507;SDS011;23360;46.936;15.514;2023-12-28T06:23:08;29.20;;;11.43;;
37507;SDS011;23360;46.936;15.514;2023-12-28T06:25:35;25.08;;;11.63;;
37507;SDS011;23360;46.936;15.514;2023-12-28T06:28:01;25.15;;;10.65;;
37507;SDS011;23360;46.936;15.514;2023-12-28T06:30:28;26.05;;;9.73;;
37507;SDS011;23360;46.936;15.514;2023-12-28T06:32:55;34.22;;;11.35;;
37507;SDS011;23360;46.936;15.514;2023-12-28T06:35:22;31.90;;;12.23;;
37507;SDS011;23360;46.936;15.514;2023-12-28T06:37:48;32.00;;;10.90;;
37507;SDS011;23360;46.936;15.514;2023-12-28T06:40:15;29.27;;;11.15;;
37507;SDS011;23360;46.936;15.514;2023-12-28T06:42:42;35.00;;;11.02;;
37507;SDS011;23360;46.936;15.514;2023-12-28T06:45:09;25.50;;;11.23;;
37507;SDS011;23360;46.936;15.514;2023-12-28T06:47:36;31.73;;;11.25;;
37507;SDS011;23360;46.936;15.514;2023-12-28T06:50:03;29.02;;;10.82;;
37507;SDS011;23360;46.936;15.514;2023-12-28T06:52:30;27.63;;;10.65;;
37507;SDS011;23360;46.936;15.514;2023-12-28T06:54:57;26.80;;;10.63;;
37507;SDS011;23360;46.936;15.514;2023-12-28T06:57:24;33.10;;;10.45;;
37507;SDS011;23360;46.936;15.514;2023-12-28T06:59:51;30.90;;;10.20;;
37507;SDS011;23360;46.936;15.514;2023-12-28T07:02:17;25.05;;;9.20;;
37507;SDS011;23360;46.936;15.514;2023-12-28T07:04:44;25.15;;;8.85;;
37507;SDS011;23360;46.936;15.514;2023-12-28T07:07:10;22.42;;;9.48;;
37507;SDS011;23360;46.936;15.514;2023-12-28T07:09:37;24.25;;;9.40;;
37507;SDS011;23360;46.936;15.514;2023-12-28T07:12:04;22.92;;;9.00;;
37507;SDS011;23360;46.936;15.514;2023-12-28T07:14:30;26.08;;;8.95;;
37507;SDS011;23360;46.936;15.514;2023-12-28T07:16:57;21.30;;;8.43;;
37507;SDS011;23360;46.936;15.514;2023-12-28T07:19:24;22.17;;;9.38;;
37507;SDS011;23360;46.936;15.514;2023-12-28T07:21:50;23.15;;;8.30;;
37507;SDS011;23360;46.936;15.514;2023-12-28T07:24:17;22.90;;;8.73;;
37507;SDS011;23360;46.936;15.514;2023-12-28T07:26:44;26.70;;;8.93;;
37507;SDS011;23360;46.936;15.514;2023-12-28T07:29:10;25.92;;;8.05;;
37507;SDS011;23360;46.936;15.514;2023-12-28T07:31:37;19.08;;;8.48;;
37507;SDS011;23360;46.936;15.514;2023-12-28T07:34:04;21.08;;;8.63;;
37507;SDS011;23360;46.936;15.514;2023-12-28T07:36:32;22.33;;;9.00;;
37507;SDS011;23360;46.936;15.514;2023-12-28T07:38:59;26.10;;;9.60;;
37507;SDS011;23360;46.936;15.514;2023-12-28T07:41:25;33.95;;;9.88;;
37507;SDS011;23360;46.936;15.514;2023-12-28T07:43:52;26.02;;;10.43;;
37507;SDS011;23360;46.936;15.514;2023-12-28T07:46:18;32.72;;;10.93;;
37507;SDS011;23360;46.936;15.514;2023-12-28T07:48:45;16.48;;;7.03;;
37507;SDS011;23360;46.936;15.514;2023-12-28T07:51:13;21.55;;;7.70;;
37507;SDS011;23360;46.936;15.514;2023-12-28T07:53:39;17.23;;;7.07;;
37507;SDS011;23360;46.936;15.514;2023-12-28T07:56:06;13.88;;;6.40;;
37507;SDS011;23360;46.936;15.514;2023-12-28T07:58:33;14.60;;;6.30;;
37507;SDS011;23360;46.936;15.514;2023-12-28T08:00:59;19.33;;;7.10;;
37507;SDS011;23360;46.936;15.514;2023-12-28T08:03:26;23.35;;;7.10;;
37507;SDS011;23360;46.936;15.514;2023-12-28T08:05:53;13.73;;;6.25;;
37507;SDS011;23360;46.936;15.514;2023-12-28T08:08:20;16.17;;;6.78;;
37507;SDS011;23360;46.936;15.514;2023-12-28T08:10:47;17.85;;;6.47;;
37507;SDS011;23360;46.936;15.514;2023-12-28T08:13:13;19.40;;;8.30;;
37507;SDS011;23360;46.936;15.514;2023-12-28T08:15:40;27.25;;;10.48;;
37507;SDS011;23360;46.936;15.514;2023-12-28T08:18:06;27.95;;;11.68;;
37507;SDS011;23360;46.936;15.514;2023-12-28T08:20:33;41.58;;;14.90;;
37507;SDS011;23360;46.936;15.514;2023-12-28T08:23:00;27.10;;;12.65;;
37507;SDS011;23360;46.936;15.514;2023-12-28T08:25:42;28.83;;;10.77;;
37507;SDS011;23360;46.936;15.514;2023-12-28T08:28:09;28.63;;;11.45;;
37507;SDS011;23360;46.936;15.514;2023-12-28T08:30:36;20.75;;;11.07;;
37507;SDS011;23360;46.936;15.514;2023-12-28T08:33:02;26.20;;;12.63;;
37507;SDS011;23360;46.936;15.514;2023-12-28T08:35:29;26.85;;;12.23;;
37507;SDS011;23360;46.936;15.514;2023-12-28T08:37:56;24.00;;;11.02;;
37507;SDS011;23360;46.936;15.514;2023-12-28T08:40:23;22.77;;;10.48;;
37507;SDS011;23360;46.936;15.514;2023-12-28T08:42:49;27.35;;;11.65;;
37507;SDS011;23360;46.936;15.514;2023-12-28T08:45:16;22.85;;;11.30;;
37507;SDS011;23360;46.936;15.514;2023-12-28T08:47:42;30.70;;;12.77;;
37507;SDS011;23360;46.936;15.514;2023-12-28T08:50:09;26.25;;;12.38;;
37507;SDS011;23360;46.936;15.514;2023-12-28T08:52:36;25.15;;;12.05;;
37507;SDS011;23360;46.936;15.514;2023-12-28T08:55:02;25.33;;;10.77;;
37507;SDS011;23360;46.936;15.514;2023-12-28T08:57:29;24.48;;;10.30;;
37507;SDS011;23360;46.936;15.514;2023-12-28T09:00:08;22.75;;;10.90;;
37507;SDS011;23360;46.936;15.514;2023-12-28T09:02:35;23.40;;;10.40;;
37507;SDS011;23360;46.936;15.514;2023-12-28T09:05:02;28.52;;;11.30;;
37507;SDS011;23360;46.936;15.514;2023-12-28T09:07:29;59.30;;;21.77;;
37507;SDS011;23360;46.936;15.514;2023-12-28T09:09:56;52.05;;;20.60;;
37507;SDS011;23360;46.936;15.514;2023-12-28T09:12:22;22.08;;;11.00;;
37507;SDS011;23360;46.936;15.514;2023-12-28T09:14:49;25.02;;;10.55;;
37507;SDS011;23360;46.936;15.514;2023-12-28T09:17:21;20.15;;;9.63;;
37507;SDS011;23360;46.936;15.514;2023-12-28T09:19:49;24.60;;;8.52;;
37507;SDS011;23360;46.936;15.514;2023-12-28T09:22:15;18.00;;;7.18;;
37507;SDS011;23360;46.936;15.514;2023-12-28T09:24:42;21.75;;;8.75;;
37507;SDS011;23360;46.936;15.514;2023-12-28T09:27:09;19.05;;;7.38;;
37507;SDS011;23360;46.936;15.514;2023-12-28T09:29:35;18.60;;;7.70;;
37507;SDS011;23360;46.936;15.514;2023-12-28T09:32:02;16.77;;;6.68;;
37507;SDS011;23360;46.936;15.514;2023-12-28T09:34:28;14.10;;;6.53;;
37507;SDS011;23360;46.936;15.514;2023-12-28T09:36:55;10.82;;;5.55;;
37507;SDS011;23360;46.936;15.514;2023-12-28T09:39:22;16.20;;;6.40;;
37507;SDS011;23360;46.936;15.514;2023-12-28T09:41:49;16.02;;;6.45;;
37507;SDS011;23360;46.936;15.514;2023-12-28T09:44:21;15.48;;;6.57;;
37507;SDS011;23360;46.936;15.514;2023-12-28T09:46:48;17.52;;;7.72;;
37507;SDS011;23360;46.936;15.514;2023-12-28T09:49:15;15.90;;;7.80;;
37507;SDS011;23360;46.936;15.514;2023-12-28T09:51:42;17.58;;;7.10;;
37507;SDS011;23360;46.936;15.514;2023-12-28T09:54:09;15.38;;;5.97;;
37507;SDS011;23360;46.936;15.514;2023-12-28T09:56:36;18.13;;;7.15;;
37507;SDS011;23360;46.936;15.514;2023-12-28T09:59:02;41.58;;;15.45;;
37507;SDS011;23360;46.936;15.514;2023-12-28T10:01:29;41.28;;;11.88;;
37507;SDS011;23360;46.936;15.514;2023-12-28T10:03:56;16.67;;;6.35;;
37507;SDS011;23360;46.936;15.514;2023-12-28T10:06:23;37.30;;;12.48;;
37507;SDS011;23360;46.936;15.514;2023-12-28T10:08:50;19.50;;;7.65;;
37507;SDS011;23360;46.936;15.514;2023-12-28T10:11:17;18.00;;;7.00;;
37507;SDS011;23360;46.936;15.514;2023-12-28T10:13:44;16.48;;;6.70;;
37507;SDS011;23360;46.936;15.514;2023-12-28T10:16:11;15.90;;;6.65;;
37507;SDS011;23360;46.936;15.514;2023-12-28T10:18:47;12.95;;;6.20;;
37507;SDS011;23360;46.936;15.514;2023-12-28T10:21:14;16.33;;;6.90;;
37507;SDS011;23360;46.936;15.514;2023-12-28T10:23:41;16.52;;;6.18;;
37507;SDS011;23360;46.936;15.514;2023-12-28T10:26:07;21.00;;;7.03;;
37507;SDS011;23360;46.936;15.514;2023-12-28T10:28:35;15.75;;;6.63;;
37507;SDS011;23360;46.936;15.514;2023-12-28T10:31:06;12.52;;;5.30;;
37507;SDS011;23360;46.936;15.514;2023-12-28T10:33:34;14.02;;;5.40;;
37507;SDS011;23360;46.936;15.514;2023-12-28T10:36:06;11.68;;;4.80;;
37507;SDS011;23360;46.936;15.514;2023-12-28T10:38:36;12.35;;;4.70;;
37507;SDS011;23360;46.936;15.514;2023-12-28T10:41:06;13.88;;;5.78;;
37507;SDS011;23360;46.936;15.514;2023-12-28T10:43:59;76.97;;;19.23;;
37507;SDS011;23360;46.936;15.514;2023-12-28T10:46:35;23.15;;;7.75;;
37507;SDS011;23360;46.936;15.514;2023-12-28T10:49:08;31.42;;;10.07;;
37507;SDS011;23360;46.936;15.514;2023-12-28T10:51:36;13.25;;;6.78;;
37507;SDS011;23360;46.936;15.514;2023-12-28T11:02:10;11.48;;;5.80;;
37507;SDS011;23360;46.936;15.514;2023-12-28T11:04:40;19.42;;;6.15;;
37507;SDS011;23360;46.936;15.514;2023-12-28T11:07:10;10.88;;;5.40;;
37507;SDS011;23360;46.936;15.514;2023-12-28T11:09:43;11.93;;;6.00;;
37507;SDS011;23360;46.936;15.514;2023-12-28T11:12:10;15.43;;;5.88;;
37507;SDS011;23360;46.936;15.514;2023-12-28T11:14:40;11.65;;;5.15;;
37507;SDS011;23360;46.936;15.514;2023-12-28T11:17:10;12.88;;;5.75;;
37507;SDS011;23360;46.936;15.514;2023-12-28T11:19:37;13.13;;;6.40;;
37507;SDS011;23360;46.936;15.514;2023-12-28T11:22:05;14.35;;;6.75;;
37507;SDS011;23360;46.936;15.514;2023-12-28T11:24:32;13.38;;;6.10;;
37507;SDS011;23360;46.936;15.514;2023-12-28T11:26:59;11.50;;;5.85;;
37507;SDS011;23360;46.936;15.514;2023-12-28T11:29:29;14.00;;;6.20;;
37507;SDS011;23360;46.936;15.514;2023-12-28T11:31:57;18.80;;;6.70;;
37507;SDS011;23360;46.936;15.514;2023-12-28T11:34:31;16.05;;;6.75;;
37507;SDS011;23360;46.936;15.514;2023-12-28T11:37:17;26.48;;;7.47;;
37507;SDS011;23360;46.936;15.514;2023-12-28T11:39:46;20.83;;;7.72;;
37507;SDS011;23360;46.936;15.514;2023-12-28T11:42:18;13.32;;;5.95;;
37507;SDS011;23360;46.936;15.514;2023-12-28T11:44:45;13.38;;;5.82;;
37507;SDS011;23360;46.936;15.514;2023-12-28T11:47:16;12.07;;;4.95;;
37507;SDS011;23360;46.936;15.514;2023-12-28T11:49:47;12.45;;;5.57;;
37507;SDS011;23360;46.936;15.514;2023-12-28T11:52:24;11.07;;;5.30;;
37507;SDS011;23360;46.936;15.514;2023-12-28T11:54:51;13.50;;;6.13;;
37507;SDS011;23360;46.936;15.514;2023-12-28T11:57:18;10.00;;;5.30;;
37507;SDS011;23360;46.936;15.514;2023-12-28T11:59:47;12.40;;;6.07;;
37507;SDS011;23360;46.936;15.514;2023-12-28T12:02:14;13.98;;;5.72;;
37507;SDS011;23360;46.936;15.514;2023-12-28T12:04:41;13.93;;;4.90;;
37507;SDS011;23360;46.936;15.514;2023-12-28T12:07:08;13.05;;;5.57;;
37507;SDS011;23360;46.936;15.514;2023-12-28T12:09:35;13.35;;;5.47;;
37507;SDS011;23360;46.936;15.514;2023-12-28T12:12:02;20.33;;;5.03;;
37507;SDS011;23360;46.936;15.514;2023-12-28T12:14:28;11.23;;;4.68;;
37507;SDS011;23360;46.936;15.514;2023-12-28T12:16:59;14.43;;;5.40;;
37507;SDS011;23360;46.936;15.514;2023-12-28T12:19:26;18.92;;;5.55;;
37507;SDS011;23360;46.936;15.514;2023-12-28T12:21:54;13.55;;;5.55;;
37507;SDS011;23360;46.936;15.514;2023-12-28T12:24:21;11.30;;;4.78;;
37507;SDS011;23360;46.936;15.514;2023-12-28T12:26:52;10.68;;;5.18;;
37507;SDS011;23360;46.936;15.514;2023-12-28T12:29:19;27.42;;;9.95;;
37507;SDS011;23360;46.936;15.514;2023-12-28T12:32:12;21.10;;;7.85;;
37507;SDS011;23360;46.936;15.514;2023-12-28T12:34:58;12.70;;;5.55;;
37507;SDS011;23360;46.936;15.514;2023-12-28T12:37:24;9.23;;;4.32;;
37507;SDS011;23360;46.936;15.514;2023-12-28T12:39:52;16.40;;;5.22;;
37507;SDS011;23360;46.936;15.514;2023-12-28T12:42:20;12.15;;;5.22;;
37507;SDS011;23360;46.936;15.514;2023-12-28T12:44:47;11.32;;;5.55;;
37507;SDS011;23360;46.936;15.514;2023-12-28T12:47:13;12.50;;;5.90;;
37507;SDS011;23360;46.936;15.514;2023-12-28T12:49:40;23.60;;;8.40;;
37507;SDS011;23360;46.936;15.514;2023-12-28T12:52:09;13.40;;;6.78;;
37507;SDS011;23360;46.936;15.514;2023-12-28T12:54:36;12.20;;;5.82;;
37507;SDS011;23360;46.936;15.514;2023-12-28T12:57:04;13.32;;;5.70;;
37507;SDS011;23360;46.936;15.514;2023-12-28T12:59:30;12.90;;;6.28;;
37507;SDS011;23360;46.936;15.514;2023-12-28T13:01:58;18.45;;;8.38;;
37507;SDS011;23360;46.936;15.514;2023-12-28T13:04:26;19.65;;;7.93;;
37507;SDS011;23360;46.936;15.514;2023-12-28T13:06:53;20.88;;;7.30;;
37507;SDS011;23360;46.936;15.514;2023-12-28T13:09:19;26.60;;;7.65;;
37507;SDS011;23360;46.936;15.514;2023-12-28T13:11:46;15.13;;;6.18;;
37507;SDS011;23360;46.936;15.514;2023-12-28T13:14:16;15.05;;;6.32;;
37507;SDS011;23360;46.936;15.514;2023-12-28T13:16:43;16.65;;;6.15;;
37507;SDS011;23360;46.936;15.514;2023-12-28T13:19:09;14.93;;;4.97;;
37507;SDS011;23360;46.936;15.514;2023-12-28T13:21:36;14.05;;;4.45;;
37507;SDS011;23360;46.936;15.514;2023-12-28T13:24:03;15.20;;;5.43;;
37507;SDS011;23360;46.936;15.514;2023-12-28T13:26:31;12.25;;;4.63;;
37507;SDS011;23360;46.936;15.514;2023-12-28T13:28:58;12.25;;;3.90;;
37507;SDS011;23360;46.936;15.514;2023-12-28T13:31:25;12.25;;;4.82;;
37507;SDS011;23360;46.936;15.514;2023-12-28T13:33:52;9.00;;;4.20;;
37507;SDS011;23360;46.936;15.514;2023-12-28T13:36:20;10.90;;;4.68;;
37507;SDS011;23360;46.936;15.514;2023-12-28T13:38:47;40.42;;;5.03;;
37507;SDS011;23360;46.936;15.514;2023-12-28T13:41:17;9.38;;;4.40;;
37507;SDS011;23360;46.936;15.514;2023-12-28T13:43:46;11.82;;;4.60;;
37507;SDS011;23360;46.936;15.514;2023-12-28T13:46:13;7.80;;;3.97;;
37507;SDS011;23360;46.936;15.514;2023-12-28T13:48:40;11.57;;;4.32;;
37507;SDS011;23360;46.936;15.514;2023-12-28T13:51:10;9.52;;;3.97;;
37507;SDS011;23360;46.936;15.514;2023-12-28T13:53:37;8.48;;;4.38;;
37507;SDS011;23360;46.936;15.514;2023-12-28T13:56:07;7.90;;;4.00;;
37507;SDS011;23360;46.936;15.514;2023-12-28T13:58:35;11.07;;;4.10;;
37507;SDS011;23360;46.936;15.514;2023-12-28T14:01:01;9.00;;;4.15;;
37507;SDS011;23360;46.936;15.514;2023-12-28T14:03:29;16.02;;;4.68;;
37507;SDS011;23360;46.936;15.514;2023-12-28T14:05:56;10.13;;;3.55;;
37507;SDS011;23360;46.936;15.514;2023-12-28T14:08:23;10.32;;;4.15;;
37507;SDS011;23360;46.936;15.514;2023-12-28T14:10:50;10.13;;;4.40;;
37507;SDS011;23360;46.936;15.514;2023-12-28T14:13:17;11.02;;;4.35;;
37507;SDS011;23360;46.936;15.514;2023-12-28T14:15:45;9.05;;;4.20;;
37507;SDS011;23360;46.936;15.514;2023-12-28T14:18:11;8.82;;;3.92;;
37507;SDS011;23360;46.936;15.514;2023-12-28T14:20:38;10.13;;;4.72;;
37507;SDS011;23360;46.936;15.514;2023-12-28T14:23:06;8.15;;;4.18;;